Flight Track Log - Related Links

Times and Time Zones

All times are in EDT time to prevent confusion due to time zone crossing. See the ASQ5123 flight status page for this flight to view local times or setup timezone preferences in your user account.

Time Position Orientation Groundspeed Altitude Reporting Facility
EDT Latitude Longitude Course Direction KTS MPH feet Rate Location/Type
Fri 09:17:03 AM 32.3019 -86.4200 North 161 185 800  Level Atlanta Center
Fri 09:19:05 AM 32.3583 -86.4117 North 223 257 5,600 2,341 Climbing Atlanta Center
Fri 09:20:05 AM 32.4014 -86.3414 54° Northeast 327 376 7,900 2,400 Climbing Atlanta Center
Fri 09:21:05 AM 32.4467 -86.2614 56° Northeast 299 344 10,400 1,900 Climbing Atlanta Center
Fri 09:22:05 AM 32.4853 -86.1983 54° Northeast 299 344 11,700 1,400 Climbing Atlanta Center
Fri 09:23:05 AM 32.5522 -86.0817 56° Northeast 326 375 13,200 1,600 Climbing Atlanta Center
Fri 09:24:05 AM 32.6081 -85.9794 57° Northeast 348 400 14,900 1,850 Climbing Atlanta Center
Fri 09:25:05 AM 32.6636 -85.8844 55° Northeast 355 409 16,900 1,050 Climbing Atlanta Center
Fri 09:26:05 AM 32.7217 -85.7819 56° Northeast 360 414 17,000 50 Climbing Atlanta Center
Fri 09:27:05 AM 32.7814 -85.6819 55° Northeast 365 420 17,000  Level Atlanta Center
Fri 09:28:05 AM 32.8392 -85.5742 57° Northeast 371 427 17,000  Level Atlanta Center
Fri 09:29:05 AM 32.9011 -85.4664 56° Northeast 382 440 17,000  Level Atlanta Center
Fri 09:30:05 AM 32.9647 -85.3583 55° Northeast 388 447 17,000  Level Atlanta Center
Fri 09:31:05 AM 33.0244 -85.2478 57° Northeast 393 452 17,000 -500 Level Atlanta Center
Fri 09:32:05 AM 33.0878 -85.1594 49° Northeast 391 450 16,000 -1,500 Descending Atlanta Center
Fri 09:33:05 AM 33.1617 -85.0611 48° Northeast 386 444 14,000 -1,000 Descending Atlanta Center
Fri 09:34:05 AM 33.2314 -84.9675 48° Northeast 386 444 14,000 -350 Level Atlanta Center
Fri 09:35:05 AM 33.3031 -84.8714 48° Northeast 381 438 13,300 -750 Descending Atlanta Center
Fri 09:36:05 AM 33.3767 -84.7800 46° Northeast 381 438 12,500 -765 Descending Atlanta Center
Fri 09:36:47 AM 33.4333 -84.7167 43° Northeast 353 406 12,000 -294 Descending Atlanta TRACON
Fri 09:37:47 AM 33.4833 -84.6333 54° Northeast 285 328 12,000 -151 Level Atlanta TRACON
Fri 09:38:46 AM 33.5333 -84.5667 48° Northeast 251 289 11,700 -842 Descending Atlanta TRACON
Fri 09:39:41 AM 33.5333 -84.5000 90° East 251 289 10,400 -1,289 Descending Atlanta TRACON
Fri 09:40:47 AM 33.5333 -84.4167 90° East 247 284 9,100 -1,286 Descending Atlanta TRACON
Fri 09:41:47 AM 33.5333 -84.3333 90° East 231 266 7,700 -1,550 Descending Atlanta TRACON
Fri 09:42:47 AM 33.5333 -84.2500 90° East 220 253 6,000 -1,400 Descending Atlanta TRACON
Fri 09:43:47 AM 33.5333 -84.1833 90° East 208 239 4,900 -1,211 Descending Atlanta TRACON
Fri 09:44:41 AM 33.5667 -84.1500 40° Northeast 222 255 3,700 -895 Descending Atlanta TRACON
Fri 09:45:41 AM 33.6167 -84.2000 320° Northwest 222 255 3,200 -350 Descending Atlanta TRACON
Fri 09:46:41 AM 33.6333 -84.2667 287° West 199 229 3,000 -300 Descending Atlanta TRACON
Fri 09:47:41 AM 33.6333 -84.3333 270° West 187 215 2,600 -650 Descending Atlanta TRACON
Fri 09:48:41 AM 33.6333 -84.3833 270° West 138 159 1,700 -900 Descending Atlanta TRACON
Fri 09:50:00 AM 33.6333 -84.4167 306° West  Level FlightAware Approximate
Fri 09:57:00 AM 33.6367 -84.4279 306° West  Level Estimated
Fri 09:58:00 AM 33.6367 -84.4279 143° Southeast  Level Estimated

Login

Don't have an account? Register now (free) for customized features, flight alerts, and more!